createdAt,value
2023-05-13T00:00:37.974Z,11.01
2023-05-13T00:03:04.545Z,10.95
2023-05-13T00:05:31.133Z,11.00
2023-05-13T00:08:01.828Z,10.97
2023-05-13T00:10:28.345Z,10.91
2023-05-13T00:12:54.805Z,10.88
2023-05-13T00:15:21.369Z,10.84
2023-05-13T00:17:47.894Z,10.83
2023-05-13T00:20:14.432Z,10.86
2023-05-13T00:22:40.878Z,10.86
2023-05-13T00:25:07.692Z,10.84
2023-05-13T00:27:34.267Z,10.82
2023-05-13T00:30:01.137Z,10.81
2023-05-13T00:32:27.789Z,10.73
2023-05-13T00:34:54.272Z,10.74
2023-05-13T00:37:20.706Z,10.73
2023-05-13T00:39:47.247Z,10.73
2023-05-13T00:42:13.791Z,10.68
2023-05-13T00:44:40.912Z,10.66
2023-05-13T00:47:08.004Z,10.61
2023-05-13T00:49:34.485Z,10.58
2023-05-13T00:52:01.844Z,10.56
2023-05-13T00:54:31.436Z,10.51
2023-05-13T00:56:59.392Z,10.46
2023-05-13T00:59:28.456Z,10.43
2023-05-13T01:02:10.988Z,10.43
2023-05-13T01:04:43.982Z,10.44
2023-05-13T01:07:10.388Z,10.44
2023-05-13T01:10:03.198Z,10.42
2023-05-13T01:12:36.381Z,10.36
2023-05-13T01:15:07.155Z,10.34
2023-05-13T01:17:41.999Z,10.34
2023-05-13T01:20:09.849Z,10.33
2023-05-13T01:22:36.329Z,10.30
2023-05-13T01:25:02.825Z,10.30
2023-05-13T01:27:29.391Z,10.29
2023-05-13T01:29:56.868Z,10.25
2023-05-13T01:32:24.477Z,10.21
2023-05-13T01:34:52.584Z,10.19
2023-05-13T01:37:20.765Z,10.14
2023-05-13T01:39:47.908Z,10.06
2023-05-13T01:42:14.479Z,10.08
2023-05-13T01:44:41.106Z,10.07
2023-05-13T01:47:07.562Z,10.05
2023-05-13T01:49:33.982Z,10.01
2023-05-13T01:52:00.500Z,9.99
2023-05-13T01:54:26.911Z,9.97
2023-05-13T01:56:53.382Z,9.91
2023-05-13T01:59:19.828Z,9.91
2023-05-13T02:01:46.343Z,9.88
2023-05-13T02:04:12.828Z,9.84
2023-05-13T02:06:39.300Z,9.80
2023-05-13T02:09:05.854Z,9.77
2023-05-13T02:11:32.326Z,9.74
2023-05-13T02:13:58.829Z,9.72
2023-05-13T02:16:25.451Z,9.70
2023-05-13T02:18:51.958Z,9.69
2023-05-13T02:21:18.478Z,9.66
2023-05-13T02:23:44.935Z,9.66
2023-05-13T02:26:11.458Z,9.61
2023-05-13T02:28:37.966Z,9.63
2023-05-13T02:31:04.471Z,9.60
2023-05-13T02:33:30.938Z,9.57
2023-05-13T02:35:57.630Z,9.52
2023-05-13T02:38:24.072Z,9.49
2023-05-13T02:40:50.701Z,9.47
2023-05-13T02:43:17.218Z,9.44
2023-05-13T02:45:43.875Z,9.40
2023-05-13T02:48:11.130Z,9.38
2023-05-13T02:50:37.721Z,9.34
2023-05-13T02:53:04.166Z,9.27
2023-05-13T02:55:30.864Z,9.20
2023-05-13T02:57:57.360Z,9.07
2023-05-13T03:00:24.005Z,8.92
2023-05-13T03:02:50.712Z,8.79
2023-05-13T03:05:17.196Z,8.82
2023-05-13T03:07:43.644Z,8.87
2023-05-13T03:10:10.598Z,8.89
2023-05-13T03:12:37.161Z,8.93
2023-05-13T03:15:04.214Z,8.93
2023-05-13T03:17:32.010Z,8.95
2023-05-13T03:19:58.524Z,8.94
2023-05-13T03:22:25.028Z,8.91
2023-05-13T03:24:51.592Z,8.87
2023-05-13T03:27:19.285Z,8.85
2023-05-13T03:29:45.841Z,8.80
2023-05-13T03:32:12.326Z,8.78
2023-05-13T03:34:38.762Z,8.79
2023-05-13T03:37:05.542Z,8.83
2023-05-13T03:39:32.027Z,8.85
2023-05-13T03:41:58.482Z,8.84
2023-05-13T03:44:24.898Z,8.81
2023-05-13T03:46:51.463Z,8.78
2023-05-13T03:49:19.040Z,8.76
2023-05-13T03:51:45.536Z,8.74
2023-05-13T03:54:12.015Z,8.73
2023-05-13T03:56:38.445Z,8.73
2023-05-13T03:59:04.917Z,8.72
2023-05-13T04:01:31.406Z,8.70
2023-05-13T04:03:57.840Z,8.67
2023-05-13T04:06:24.304Z,8.69
2023-05-13T04:08:51.506Z,8.69
2023-05-13T04:11:18.097Z,8.63
2023-05-13T04:13:45.953Z,8.61
2023-05-13T04:16:12.656Z,8.62
2023-05-13T04:18:39.140Z,8.64
2023-05-13T04:21:09.606Z,8.66
2023-05-13T04:23:36.085Z,8.68
2023-05-13T04:26:02.772Z,8.69
2023-05-13T04:28:29.374Z,8.71
2023-05-13T04:30:56.044Z,8.72
2023-05-13T04:33:22.660Z,8.71
2023-05-13T04:35:49.116Z,8.70
2023-05-13T04:38:15.560Z,8.74
2023-05-13T04:40:43.718Z,8.77
2023-05-13T04:43:11.518Z,8.80
2023-05-13T04:45:39.147Z,8.85
2023-05-13T04:48:06.025Z,8.86
2023-05-13T04:50:32.545Z,8.87
2023-05-13T04:52:59.445Z,8.87
2023-05-13T04:55:27.546Z,8.94
2023-05-13T04:57:54.397Z,8.98
2023-05-13T05:00:21.180Z,9.00
2023-05-13T05:02:48.282Z,9.06
2023-05-13T05:05:17.450Z,9.08
2023-05-13T05:07:44.824Z,9.17
2023-05-13T05:10:11.252Z,9.24
2023-05-13T05:12:38.222Z,9.29
2023-05-13T05:15:05.877Z,9.36
2023-05-13T05:17:35.343Z,9.42
2023-05-13T05:20:01.956Z,9.48
2023-05-13T05:22:28.420Z,9.54
2023-05-13T05:24:54.839Z,9.61
2023-05-13T05:27:21.338Z,9.67
2023-05-13T05:29:47.814Z,9.73
2023-05-13T05:32:14.421Z,9.75
2023-05-13T05:34:41.056Z,9.81
2023-05-13T05:37:07.657Z,9.90
2023-05-13T05:39:35.227Z,10.01
2023-05-13T05:42:02.060Z,10.13
2023-05-13T05:44:28.567Z,10.22
2023-05-13T05:46:55.313Z,10.33
2023-05-13T05:49:21.802Z,10.44
2023-05-13T05:51:48.268Z,10.56
2023-05-13T05:54:14.730Z,10.63
2023-05-13T05:56:41.254Z,10.77
2023-05-13T05:59:07.791Z,10.87
2023-05-13T06:01:36.676Z,10.98
2023-05-13T06:04:04.313Z,11.06
2023-05-13T06:06:32.270Z,11.13
2023-05-13T06:08:58.718Z,11.25
2023-05-13T06:11:25.184Z,11.33
2023-05-13T06:13:51.663Z,11.45
2023-05-13T06:16:18.160Z,11.56
2023-05-13T06:18:44.672Z,11.65
2023-05-13T06:21:11.247Z,11.79
2023-05-13T06:23:37.923Z,11.90
2023-05-13T06:26:04.432Z,11.98
2023-05-13T06:28:30.899Z,12.06
2023-05-13T06:30:57.448Z,12.18
2023-05-13T06:33:24.025Z,12.24
2023-05-13T06:35:50.580Z,12.36
2023-05-13T06:38:20.114Z,12.43
2023-05-13T06:40:46.608Z,12.54
2023-05-13T06:43:14.627Z,12.56
2023-05-13T06:45:41.343Z,12.68
2023-05-13T06:48:08.200Z,12.73
2023-05-13T06:50:34.693Z,12.84
2023-05-13T06:53:01.240Z,12.90
2023-05-13T06:55:27.957Z,12.94
2023-05-13T06:57:54.466Z,13.03
2023-05-13T07:00:21.287Z,13.16
2023-05-13T07:02:47.983Z,13.27
2023-05-13T07:05:14.461Z,13.41
2023-05-13T07:07:41.028Z,13.53
2023-05-13T07:10:07.779Z,13.68
2023-05-13T07:12:34.276Z,13.79
2023-05-13T07:15:00.780Z,13.92
2023-05-13T07:17:27.328Z,14.06
2023-05-13T07:19:54.171Z,14.16
2023-05-13T07:22:20.636Z,14.26
2023-05-13T07:24:47.130Z,14.37
2023-05-13T07:27:13.683Z,14.50
2023-05-13T07:29:40.136Z,14.59
2023-05-13T07:32:07.362Z,14.70
2023-05-13T07:34:33.873Z,14.80
2023-05-13T07:37:00.394Z,14.86
2023-05-13T07:39:27.423Z,14.97
2023-05-13T07:41:54.182Z,15.07
2023-05-13T07:44:21.010Z,15.17
2023-05-13T07:46:48.847Z,15.19
2023-05-13T07:49:15.322Z,15.31
2023-05-13T07:51:41.916Z,15.40
2023-05-13T07:54:09.446Z,15.49
2023-05-13T07:56:37.941Z,15.59
2023-05-13T07:59:05.068Z,15.71
2023-05-13T08:01:31.680Z,15.77
2023-05-13T08:03:58.290Z,15.89
2023-05-13T08:06:25.015Z,15.99
2023-05-13T08:08:51.549Z,16.08
2023-05-13T08:11:18.003Z,16.20
2023-05-13T08:13:44.444Z,16.29
2023-05-13T08:16:10.945Z,16.42
2023-05-13T08:18:37.465Z,16.53
2023-05-13T08:21:04.025Z,16.59
2023-05-13T08:23:43.289Z,16.65
2023-05-13T08:26:10.438Z,16.74
2023-05-13T08:28:38.036Z,16.81
2023-05-13T08:31:04.717Z,16.95
2023-05-13T08:33:31.704Z,16.98
2023-05-13T08:36:00.165Z,17.09
2023-05-13T08:38:26.653Z,17.18
2023-05-13T08:40:53.277Z,17.26
2023-05-13T08:43:20.322Z,17.36
2023-05-13T08:45:48.109Z,17.49
2023-05-13T08:48:19.712Z,17.60
2023-05-13T08:50:47.095Z,17.71
2023-05-13T08:53:13.680Z,17.82
2023-05-13T08:55:42.790Z,17.96
2023-05-13T08:58:09.394Z,18.04
2023-05-13T09:00:36.036Z,18.15
2023-05-13T09:03:02.715Z,18.24
2023-05-13T09:05:29.426Z,18.30
2023-05-13T09:07:56.442Z,18.33
2023-05-13T09:10:22.959Z,18.42
2023-05-13T09:12:55.098Z,18.53
2023-05-13T09:15:23.806Z,18.61
2023-05-13T09:17:56.175Z,18.66
2023-05-13T09:20:25.363Z,18.67
2023-05-13T09:22:54.457Z,18.77
2023-05-13T09:25:24.065Z,18.83
2023-05-13T09:27:55.520Z,18.96
2023-05-13T09:30:22.074Z,19.03
2023-05-13T09:33:05.506Z,19.12
2023-05-13T09:35:32.972Z,19.19
2023-05-13T09:37:59.619Z,19.30
2023-05-13T09:40:26.245Z,19.34
2023-05-13T09:42:58.723Z,19.46
2023-05-13T09:45:26.282Z,19.46
2023-05-13T09:47:54.773Z,19.55
2023-05-13T09:50:22.263Z,19.57
2023-05-13T09:52:49.595Z,19.67
2023-05-13T09:55:16.025Z,19.77
2023-05-13T09:57:42.514Z,19.73
2023-05-13T10:00:17.920Z,19.83
2023-05-13T10:02:48.232Z,19.92
2023-05-13T10:05:15.206Z,20.05
2023-05-13T10:07:41.900Z,20.16
2023-05-13T10:10:09.581Z,20.32
2023-05-13T10:12:39.648Z,20.44
2023-05-13T10:15:07.975Z,20.51
2023-05-13T10:17:35.895Z,20.52
2023-05-13T10:20:05.235Z,20.54
2023-05-13T10:22:34.768Z,20.63
2023-05-13T10:25:03.202Z,20.74
2023-05-13T10:27:31.936Z,20.79
2023-05-13T10:30:01.734Z,20.90
2023-05-13T10:32:31.153Z,20.96
2023-05-13T10:35:05.086Z,21.01
2023-05-13T10:37:47.953Z,21.12
2023-05-13T10:40:42.130Z,21.29
2023-05-13T10:43:21.697Z,21.34
2023-05-13T10:45:56.063Z,21.40
2023-05-13T10:48:23.396Z,21.53
2023-05-13T10:51:00.763Z,21.54
2023-05-13T10:53:32.400Z,21.54
2023-05-13T10:56:00.134Z,21.65
2023-05-13T10:58:32.261Z,21.78
2023-05-13T11:01:29.903Z,22.00
2023-05-13T11:04:01.355Z,22.13
2023-05-13T11:06:35.305Z,22.26
2023-05-13T11:09:05.858Z,22.33
2023-05-13T11:11:35.624Z,22.46
2023-05-13T11:14:24.650Z,22.52
2023-05-13T11:16:54.977Z,22.69
2023-05-13T11:19:27.306Z,22.76
2023-05-13T11:21:57.320Z,22.84
2023-05-13T11:24:24.673Z,23.00
2023-05-13T11:26:56.508Z,23.10
2023-05-13T11:29:29.994Z,23.13
2023-05-13T11:32:00.322Z,23.33
2023-05-13T11:34:27.582Z,23.47
2023-05-13T11:37:10.177Z,23.61
2023-05-13T11:39:40.689Z,23.71
2023-05-13T11:42:08.899Z,23.84
2023-05-13T11:44:35.974Z,24.01
2023-05-13T11:47:08.169Z,24.08
2023-05-13T11:49:43.534Z,24.31
2023-05-13T11:52:11.880Z,24.62
2023-05-13T11:54:47.290Z,24.93
2023-05-13T11:57:21.947Z,25.26
2023-05-13T11:59:57.584Z,25.64
2023-05-13T12:02:29.348Z,26.03
2023-05-13T12:04:59.503Z,26.47
2023-05-13T12:07:26.843Z,26.73
2023-05-13T12:09:56.952Z,27.05
2023-05-13T12:12:23.656Z,27.59
2023-05-13T12:14:50.774Z,28.04
2023-05-13T12:17:18.375Z,28.50
2023-05-13T12:20:07.448Z,28.82
2023-05-13T12:22:35.426Z,28.84
2023-05-13T12:25:36.100Z,29.16
2023-05-13T12:28:18.004Z,29.20
2023-05-13T12:30:50.025Z,29.52
2023-05-13T12:33:19.152Z,29.70
2023-05-13T12:35:48.461Z,29.90
2023-05-13T12:38:17.454Z,29.96
2023-05-13T12:40:45.857Z,29.99
2023-05-13T12:43:13.280Z,30.18
2023-05-13T12:45:43.963Z,30.67
2023-05-13T12:48:11.946Z,30.36
2023-05-13T12:50:38.654Z,30.27
2023-05-13T12:53:05.784Z,30.42
2023-05-13T12:55:32.395Z,30.69
2023-05-13T12:58:03.578Z,30.88
2023-05-13T13:00:30.981Z,30.79
2023-05-13T13:02:57.844Z,30.52
2023-05-13T13:05:25.311Z,30.67
2023-05-13T13:07:51.945Z,30.70
2023-05-13T13:10:18.585Z,30.68
2023-05-13T13:12:45.208Z,30.82
2023-05-13T13:15:12.033Z,30.75
2023-05-13T13:17:38.691Z,30.96
2023-05-13T13:20:07.362Z,30.81
2023-05-13T13:22:36.858Z,30.82
2023-05-13T13:25:05.505Z,30.69
2023-05-13T13:27:33.426Z,30.98
2023-05-13T13:30:00.129Z,30.79
2023-05-13T13:32:26.835Z,30.09
2023-05-13T13:34:53.659Z,29.95
2023-05-13T13:37:20.255Z,30.22
2023-05-13T13:39:46.761Z,30.01
2023-05-13T13:42:13.248Z,30.20
2023-05-13T13:44:39.691Z,30.09
2023-05-13T13:47:06.239Z,30.11
2023-05-13T13:49:32.723Z,30.38
2023-05-13T13:51:59.205Z,30.25
2023-05-13T13:54:25.690Z,30.42
2023-05-13T13:56:52.156Z,30.52
2023-05-13T13:59:19.393Z,30.71
2023-05-13T15:05:44.005Z,20.93
2023-05-13T15:08:10.948Z,20.86
2023-05-13T15:10:37.470Z,20.70
2023-05-13T15:13:03.953Z,20.65
2023-05-13T15:15:30.677Z,20.65
2023-05-13T15:17:57.268Z,20.63
2023-05-13T15:20:24.051Z,20.64
2023-05-13T15:22:50.718Z,20.69
2023-05-13T15:25:17.158Z,20.67
2023-05-13T15:27:44.744Z,20.63
2023-05-13T15:30:11.528Z,20.58
2023-05-13T15:32:39.525Z,20.60
2023-05-13T15:35:06.585Z,20.62
2023-05-13T15:37:33.027Z,20.70
2023-05-13T15:39:59.470Z,20.71
2023-05-13T15:42:26.769Z,20.46
2023-05-13T15:44:53.359Z,20.37
2023-05-13T15:47:19.926Z,20.44
2023-05-13T15:49:46.891Z,20.30
2023-05-13T15:52:14.629Z,20.39
2023-05-13T15:54:41.320Z,20.52
2023-05-13T15:57:07.793Z,20.57
2023-05-13T15:59:34.253Z,20.58
2023-05-13T16:02:01.050Z,20.74
2023-05-13T16:04:27.589Z,20.89
2023-05-13T16:06:54.125Z,20.92
2023-05-13T16:09:20.729Z,20.91
2023-05-13T16:11:47.312Z,20.84
2023-05-13T16:14:13.987Z,20.82
2023-05-13T16:16:40.562Z,20.72
2023-05-13T16:19:08.504Z,20.67
2023-05-13T16:21:35.259Z,20.57
2023-05-13T16:24:01.772Z,20.61
2023-05-13T16:26:28.226Z,20.58
2023-05-13T16:28:55.034Z,20.54
2023-05-13T16:31:21.521Z,20.53
2023-05-13T16:33:47.995Z,20.36
2023-05-13T16:36:14.621Z,20.35
2023-05-13T16:38:44.132Z,20.39
2023-05-13T16:41:10.936Z,20.44
2023-05-13T16:43:37.503Z,20.47
2023-05-13T16:46:04.038Z,20.46
2023-05-13T16:48:30.590Z,20.44
2023-05-13T16:50:57.514Z,20.38
2023-05-13T16:53:26.937Z,20.24
2023-05-13T16:55:53.540Z,20.15
2023-05-13T16:58:20.157Z,20.20
2023-05-13T17:00:46.699Z,20.24
2023-05-13T17:03:13.822Z,20.23
2023-05-13T17:05:40.459Z,20.25
2023-05-13T17:08:06.890Z,20.22
2023-05-13T17:10:33.465Z,20.03
2023-05-13T17:13:00.083Z,19.90
2023-05-13T17:15:26.574Z,19.87
2023-05-13T17:17:53.084Z,19.84
2023-05-13T17:20:20.496Z,19.84
2023-05-13T17:22:48.603Z,19.82
2023-05-13T17:25:15.362Z,19.77
2023-05-13T17:27:41.892Z,19.69
2023-05-13T17:30:08.902Z,19.65
2023-05-13T17:32:35.730Z,19.61
2023-05-13T17:35:03.382Z,19.57
2023-05-13T17:37:29.818Z,19.49
2023-05-13T17:39:57.612Z,19.41
2023-05-13T17:42:24.109Z,19.30
2023-05-13T17:44:50.658Z,19.17
2023-05-13T17:47:17.221Z,19.09
2023-05-13T17:49:43.648Z,18.97
2023-05-13T17:52:10.093Z,18.92
2023-05-13T17:54:37.054Z,18.93
2023-05-13T17:57:03.750Z,18.96
2023-05-13T17:59:30.484Z,18.98
2023-05-13T18:01:57.062Z,18.97
2023-05-13T18:04:23.607Z,18.95
2023-05-13T18:06:50.122Z,19.06
2023-05-13T18:09:16.603Z,19.03
2023-05-13T18:11:43.160Z,19.18
2023-05-13T18:14:09.636Z,19.24
2023-05-13T18:16:36.168Z,19.19
2023-05-13T18:19:02.753Z,19.15
2023-05-13T18:21:30.761Z,19.08
2023-05-13T18:23:57.339Z,18.99
2023-05-13T18:26:23.960Z,18.96
2023-05-13T18:28:50.418Z,18.95
2023-05-13T18:31:17.013Z,18.90
2023-05-13T18:33:43.669Z,18.82
2023-05-13T18:36:10.476Z,18.77
2023-05-13T18:38:36.983Z,18.70
2023-05-13T18:41:03.667Z,18.62
2023-05-13T18:43:30.558Z,18.54
2023-05-13T18:45:58.000Z,18.45
2023-05-13T18:48:25.099Z,18.31
2023-05-13T18:50:53.017Z,18.19
2023-05-13T18:53:19.673Z,18.08
2023-05-13T18:55:46.488Z,18.00
2023-05-13T18:58:13.797Z,17.91
2023-05-13T19:00:40.344Z,17.77
2023-05-13T19:03:06.912Z,17.71
2023-05-13T19:05:33.597Z,17.56
2023-05-13T19:08:00.674Z,17.43
2023-05-13T19:10:27.241Z,17.30
2023-05-13T19:12:53.707Z,17.16
2023-05-13T19:15:21.264Z,17.03
2023-05-13T19:17:47.974Z,16.98
2023-05-13T19:20:17.142Z,16.93
2023-05-13T19:22:43.700Z,16.82
2023-05-13T19:25:10.289Z,16.68
2023-05-13T19:27:37.297Z,16.64
2023-05-13T19:30:04.474Z,16.53
2023-05-13T19:32:31.040Z,16.46
2023-05-13T19:34:57.827Z,16.36
2023-05-13T19:37:24.853Z,16.25
2023-05-13T19:39:51.297Z,16.14
2023-05-13T19:42:17.764Z,16.03
2023-05-13T19:44:44.276Z,15.98
2023-05-13T19:47:10.823Z,15.88
2023-05-13T19:49:37.266Z,15.82
2023-05-13T19:52:03.891Z,15.69
2023-05-13T19:54:30.311Z,15.57
2023-05-13T19:56:56.800Z,15.46
2023-05-13T19:59:23.265Z,15.33
2023-05-13T20:01:49.765Z,15.24
2023-05-13T20:04:16.837Z,15.19
2023-05-13T20:06:43.311Z,15.17
2023-05-13T20:09:10.489Z,15.04
2023-05-13T20:11:36.933Z,14.98
2023-05-13T20:14:04.138Z,14.98
2023-05-13T20:16:30.703Z,14.91
2023-05-13T20:18:57.186Z,14.85
2023-05-13T20:21:23.706Z,14.83
2023-05-13T20:23:50.187Z,14.81
2023-05-13T20:26:17.252Z,14.79
2023-05-13T20:28:45.615Z,14.72
2023-05-13T20:31:12.087Z,14.67
2023-05-13T20:33:38.612Z,14.61
2023-05-13T20:36:06.474Z,14.52
2023-05-13T20:38:33.094Z,14.51
2023-05-13T20:40:59.870Z,14.47
2023-05-13T20:43:26.406Z,14.45
2023-05-13T20:45:52.958Z,14.41
2023-05-13T20:48:19.494Z,14.34
2023-05-13T20:50:45.995Z,14.28
2023-05-13T20:53:12.582Z,14.22
2023-05-13T20:55:39.224Z,14.17
2023-05-13T20:58:05.753Z,14.16
2023-05-13T21:00:32.213Z,14.09
2023-05-13T21:02:59.850Z,14.08
2023-05-13T21:05:26.532Z,14.04
2023-05-13T21:07:52.990Z,14.01
2023-05-13T21:10:19.574Z,13.96
2023-05-13T21:12:47.763Z,13.89
2023-05-13T21:15:14.726Z,13.85
2023-05-13T21:17:41.397Z,13.82
2023-05-13T21:20:09.002Z,13.78
2023-05-13T21:22:35.622Z,13.75
2023-05-13T21:25:02.190Z,13.73
2023-05-13T21:27:28.653Z,13.72
2023-05-13T21:29:55.068Z,13.68
2023-05-13T21:32:21.698Z,13.64
2023-05-13T21:34:48.174Z,13.58
2023-05-13T21:37:16.677Z,13.48
2023-05-13T21:39:43.132Z,13.44
2023-05-13T21:42:09.616Z,13.42
2023-05-13T21:44:36.060Z,13.36
2023-05-13T21:47:02.556Z,13.34
2023-05-13T21:49:29.110Z,13.31
2023-05-13T21:51:55.621Z,13.27
2023-05-13T21:54:22.041Z,13.23
2023-05-13T21:56:48.534Z,13.16
2023-05-13T21:59:15.055Z,13.15
2023-05-13T22:01:41.610Z,13.03
2023-05-13T22:04:08.679Z,13.00
2023-05-13T22:06:35.413Z,13.00
2023-05-13T22:09:01.949Z,12.96
2023-05-13T22:11:28.418Z,12.93
2023-05-13T22:13:54.920Z,12.91
2023-05-13T22:16:21.566Z,12.87
2023-05-13T22:18:49.407Z,12.82
2023-05-13T22:21:16.001Z,12.75
2023-05-13T22:23:42.455Z,12.68
2023-05-13T22:26:08.967Z,12.60
2023-05-13T22:28:35.434Z,12.57
2023-05-13T22:31:01.974Z,12.53
2023-05-13T22:33:28.522Z,12.49
2023-05-13T22:35:55.027Z,12.46
2023-05-13T22:38:21.480Z,12.42
2023-05-13T22:40:47.931Z,12.42
2023-05-13T22:43:14.427Z,12.37
2023-05-13T22:45:40.970Z,12.36
2023-05-13T22:48:08.157Z,12.29
2023-05-13T22:50:34.850Z,12.28
2023-05-13T22:53:01.325Z,12.22
2023-05-13T22:55:27.780Z,12.17
2023-05-13T22:57:54.706Z,12.12
2023-05-13T23:00:21.366Z,12.08
2023-05-13T23:02:48.033Z,12.03
2023-05-13T23:05:14.552Z,11.98
2023-05-13T23:07:41.158Z,11.98
2023-05-13T23:10:07.980Z,11.95
2023-05-13T23:12:34.465Z,11.91
2023-05-13T23:15:01.001Z,11.84
2023-05-13T23:17:27.570Z,11.83
2023-05-13T23:19:54.147Z,11.77
2023-05-13T23:22:20.593Z,11.70
2023-05-13T23:24:47.062Z,11.66
2023-05-13T23:27:13.584Z,11.58
2023-05-13T23:29:40.103Z,11.48
2023-05-13T23:32:07.252Z,11.39
2023-05-13T23:34:33.884Z,11.38
2023-05-13T23:37:00.316Z,11.36
2023-05-13T23:39:26.815Z,11.36
2023-05-13T23:41:53.279Z,11.32
2023-05-13T23:44:19.742Z,11.28
2023-05-13T23:46:46.191Z,11.23
2023-05-13T23:49:12.640Z,11.17
2023-05-13T23:51:39.132Z,11.17
2023-05-13T23:54:05.688Z,11.11
2023-05-13T23:56:32.181Z,11.10
2023-05-13T23:58:58.699Z,11.07
